createdAt,value
2023-05-02T00:01:28.710Z,102457.47
2023-05-02T00:03:59.979Z,102450.28
2023-05-02T00:06:33.583Z,102443.19
2023-05-02T00:09:05.601Z,102430.50
2023-05-02T00:11:37.203Z,102423.81
2023-05-02T00:14:08.740Z,102423.53
2023-05-02T00:16:40.166Z,102418.16
2023-05-02T00:19:10.968Z,102406.06
2023-05-02T00:21:42.007Z,102401.38
2023-05-02T00:24:13.018Z,102401.72
2023-05-02T00:26:44.098Z,102386.75
2023-05-02T00:29:15.104Z,102383.88
2023-05-02T00:31:46.225Z,102379.31
2023-05-02T00:34:17.776Z,102369.78
2023-05-02T00:36:50.188Z,102360.03
2023-05-02T00:39:21.598Z,102365.81
2023-05-02T00:41:52.476Z,102355.34
2023-05-02T00:44:24.099Z,102354.00
2023-05-02T00:46:55.634Z,102349.78
2023-05-02T00:49:27.237Z,102340.22
2023-05-02T00:51:58.606Z,102343.47
2023-05-02T00:54:30.083Z,102329.13
2023-05-02T00:57:01.740Z,102317.84
2023-05-02T00:59:32.719Z,102315.44
2023-05-02T01:02:30.627Z,102299.88
2023-05-02T01:05:05.220Z,102304.00
2023-05-02T01:07:57.272Z,102297.66
2023-05-02T01:11:01.981Z,102293.34
2023-05-02T01:13:36.532Z,102299.19
2023-05-02T01:16:08.628Z,102285.00
2023-05-02T01:18:42.722Z,102291.56
2023-05-02T01:21:15.089Z,102282.22
2023-05-02T01:23:52.535Z,102274.41
2023-05-02T01:26:35.505Z,102278.94
2023-05-02T01:29:10.120Z,102278.47
2023-05-02T01:31:46.694Z,102276.47
2023-05-02T01:34:19.798Z,102268.94
2023-05-02T01:36:53.089Z,102266.00
2023-05-02T01:39:27.273Z,102270.53
2023-05-02T01:41:59.670Z,102264.53
2023-05-02T01:44:32.017Z,102264.22
2023-05-02T01:47:05.014Z,102263.66
2023-05-02T01:49:36.802Z,102260.88
2023-05-02T01:52:12.320Z,102247.41
2023-05-02T01:54:44.103Z,102251.22
2023-05-02T01:57:16.120Z,102247.66
2023-05-02T01:59:47.912Z,102248.97
2023-05-02T02:02:19.574Z,102254.75
2023-05-02T02:04:51.506Z,102255.59
2023-05-02T02:07:23.758Z,102257.44
2023-05-02T02:09:55.337Z,102259.47
2023-05-02T02:12:33.575Z,102259.75
2023-05-02T02:15:31.935Z,102263.97
2023-05-02T02:18:04.966Z,102253.00
2023-05-02T02:20:37.179Z,102254.09
2023-05-02T02:23:10.322Z,102254.59
2023-05-02T02:25:42.348Z,102252.28
2023-05-02T02:28:13.988Z,102255.31
2023-05-02T02:30:44.610Z,102256.03
2023-05-02T02:33:15.480Z,102251.25
2023-05-02T02:35:54.265Z,102246.97
2023-05-02T02:38:25.384Z,102246.91
2023-05-02T02:40:59.960Z,102245.84
2023-05-02T02:44:05.753Z,102248.22
2023-05-02T02:47:02.333Z,102231.63
2023-05-02T02:49:58.037Z,102234.19
2023-05-02T02:52:50.701Z,102232.94
2023-05-02T02:55:27.113Z,102231.72
2023-05-02T02:58:19.113Z,102235.94
2023-05-02T03:00:51.289Z,102241.69
2023-05-02T03:03:26.658Z,102240.25
2023-05-02T03:05:59.178Z,102241.94
2023-05-02T03:08:42.770Z,102251.56
2023-05-02T03:11:19.329Z,102257.66
2023-05-02T03:13:51.065Z,102246.69
2023-05-02T03:16:41.594Z,102257.16
2023-05-02T03:19:18.403Z,102235.00
2023-05-02T03:21:51.258Z,102257.00
2023-05-02T03:24:24.259Z,102243.69
2023-05-02T03:27:00.656Z,102255.09
2023-05-02T03:29:37.531Z,102251.25
2023-05-02T03:32:09.474Z,102251.72
2023-05-02T03:34:43.273Z,102258.31
2023-05-02T03:37:15.888Z,102252.81
2023-05-02T03:39:47.304Z,102248.66
2023-05-02T03:42:18.735Z,102249.53
2023-05-02T03:44:53.708Z,102250.44
2023-05-02T03:47:25.337Z,102249.91
2023-05-02T03:49:56.368Z,102244.69
2023-05-02T03:52:28.138Z,102252.13
2023-05-02T03:54:59.891Z,102251.00
2023-05-02T03:57:34.228Z,102246.94
2023-05-02T04:00:04.901Z,102249.97
2023-05-02T04:02:42.436Z,102260.94
2023-05-02T04:05:17.463Z,102258.75
2023-05-02T04:07:51.516Z,102261.50
2023-05-02T04:10:22.273Z,102266.13
2023-05-02T04:13:00.917Z,102264.84
2023-05-02T04:15:35.647Z,102262.06
2023-05-02T04:18:07.678Z,102260.69
2023-05-02T04:20:40.923Z,102267.84
2023-05-02T04:23:12.106Z,102260.16
2023-05-02T04:25:44.232Z,102256.63
2023-05-02T04:28:15.452Z,102260.69
2023-05-02T04:30:47.213Z,102252.47
2023-05-02T04:33:19.890Z,102255.78
2023-05-02T04:35:51.730Z,102242.34
2023-05-02T04:38:24.854Z,102261.81
2023-05-02T04:40:56.685Z,102246.44
2023-05-02T04:43:36.992Z,102250.59
2023-05-02T04:46:09.004Z,102250.03
2023-05-02T04:48:45.381Z,102246.19
2023-05-02T04:51:17.156Z,102253.88
2023-05-02T04:53:52.021Z,102253.34
2023-05-02T04:56:23.577Z,102250.81
2023-05-02T04:58:55.174Z,102254.97
2023-05-02T05:01:26.637Z,102247.28
2023-05-02T05:03:58.777Z,102256.03
2023-05-02T05:06:30.455Z,102253.56
2023-05-02T05:09:02.351Z,102253.81
2023-05-02T05:11:33.457Z,102253.50
2023-05-02T05:14:05.930Z,102260.63
2023-05-02T05:16:40.309Z,102259.19
2023-05-02T05:19:12.772Z,102258.09
2023-05-02T05:21:44.395Z,102267.13
2023-05-02T05:24:18.739Z,102262.19
2023-05-02T05:26:50.910Z,102261.88
2023-05-02T05:29:23.944Z,102270.69
2023-05-02T05:31:55.351Z,102266.59
2023-05-02T05:34:28.313Z,102255.09
2023-05-02T05:37:02.961Z,102260.03
2023-05-02T05:39:34.872Z,102268.94
2023-05-02T05:42:07.516Z,102268.66
2023-05-02T05:44:42.174Z,102271.13
2023-05-02T05:47:13.974Z,102268.91
2023-05-02T05:49:44.978Z,102267.81
2023-05-02T05:52:16.501Z,102272.97
2023-05-02T05:54:48.115Z,102267.19
2023-05-02T05:57:18.798Z,102272.91
2023-05-02T05:59:50.041Z,102271.00
2023-05-02T06:02:21.521Z,102277.25
2023-05-02T06:04:52.692Z,102274.50
2023-05-02T06:07:26.613Z,102264.81
2023-05-02T06:09:58.596Z,102267.09
2023-05-02T06:12:32.026Z,102268.63
2023-05-02T06:15:03.813Z,102262.00
2023-05-02T06:17:34.784Z,102270.00
2023-05-02T06:20:07.010Z,102274.38
2023-05-02T06:22:42.171Z,102271.34
2023-05-02T06:25:13.722Z,102264.69
2023-05-02T06:27:45.123Z,102273.97
2023-05-02T06:30:16.808Z,102272.88
2023-05-02T06:32:48.420Z,102279.38
2023-05-02T06:35:19.234Z,102280.88
2023-05-02T06:37:50.449Z,102281.06
2023-05-02T06:40:21.512Z,102277.56
2023-05-02T06:42:52.939Z,102276.69
2023-05-02T06:45:24.095Z,102279.13
2023-05-02T06:47:55.525Z,102275.06
2023-05-02T06:50:26.933Z,102276.22
2023-05-02T06:52:58.559Z,102272.56
2023-05-02T06:55:29.920Z,102282.91
2023-05-02T06:58:01.057Z,102282.91
2023-05-02T07:00:32.765Z,102286.97
2023-05-02T07:03:04.347Z,102297.44
2023-05-02T07:05:35.578Z,102300.34
2023-05-02T07:08:07.439Z,102303.44
2023-05-02T07:10:38.817Z,102299.09
2023-05-02T07:13:10.213Z,102307.13
2023-05-02T07:15:42.923Z,102311.91
2023-05-02T07:18:14.077Z,102323.31
2023-05-02T07:20:44.987Z,102329.50
2023-05-02T07:23:16.146Z,102340.16
2023-05-02T07:25:47.775Z,102339.00
2023-05-02T07:28:19.094Z,102341.81
2023-05-02T07:30:50.463Z,102345.09
2023-05-02T07:33:21.630Z,102346.69
2023-05-02T07:35:53.314Z,102357.72
2023-05-02T07:38:25.045Z,102366.44
2023-05-02T07:40:55.928Z,102373.78
2023-05-02T07:43:27.870Z,102372.28
2023-05-02T07:45:59.352Z,102370.63
2023-05-02T07:48:30.211Z,102384.91
2023-05-02T07:51:11.967Z,102388.97
2023-05-02T07:53:43.215Z,102391.44
2023-05-02T07:56:16.669Z,102394.59
2023-05-02T07:58:48.364Z,102388.19
2023-05-02T08:01:20.115Z,102384.09
2023-05-02T08:03:53.382Z,102391.84
2023-05-02T08:06:24.794Z,102390.44
2023-05-02T08:08:56.381Z,102394.31
2023-05-02T08:11:27.578Z,102389.47
2023-05-02T08:13:59.052Z,102400.75
2023-05-02T08:16:30.864Z,102396.66
2023-05-02T08:19:02.444Z,102406.06
2023-05-02T08:21:34.081Z,102413.31
2023-05-02T08:24:05.529Z,102408.47
2023-05-02T08:26:36.866Z,102411.41
2023-05-02T08:29:08.652Z,102408.69
2023-05-02T08:31:41.522Z,102419.13
2023-05-02T08:34:12.939Z,102405.97
2023-05-02T08:36:43.987Z,102422.91
2023-05-02T08:39:15.182Z,102417.09
2023-05-02T08:41:46.605Z,102406.06
2023-05-02T08:44:17.212Z,102409.13
2023-05-02T08:46:48.743Z,102401.75
2023-05-02T08:49:21.169Z,102410.00
2023-05-02T08:51:53.283Z,102417.78
2023-05-02T08:54:27.245Z,102415.66
2023-05-02T08:57:01.238Z,102418.38
2023-05-02T08:59:33.340Z,102425.81
2023-05-02T09:02:14.886Z,102418.28
2023-05-02T09:04:47.693Z,102431.81
2023-05-02T09:07:18.709Z,102425.72
2023-05-02T09:09:52.487Z,102419.59
2023-05-02T09:12:28.955Z,102430.97
2023-05-02T09:15:20.877Z,102443.38
2023-05-02T09:17:52.955Z,102436.53
2023-05-02T09:20:24.402Z,102430.50
2023-05-02T09:22:55.904Z,102438.91
2023-05-02T09:25:27.301Z,102442.72
2023-05-02T09:28:02.890Z,102448.84
2023-05-02T09:30:34.367Z,102442.72
2023-05-02T09:33:05.766Z,102461.31
2023-05-02T09:35:39.117Z,102451.56
2023-05-02T09:38:22.715Z,102453.91
2023-05-02T09:40:57.929Z,102442.63
2023-05-02T09:43:29.343Z,102443.03
2023-05-02T09:46:04.323Z,102446.34
2023-05-02T09:48:53.580Z,102439.41
2023-05-02T09:51:26.771Z,102445.44
2023-05-02T09:53:57.942Z,102444.88
2023-05-02T09:56:29.701Z,102450.00
2023-05-02T09:59:17.625Z,102453.53
2023-05-02T10:01:48.778Z,102467.91
2023-05-02T10:04:21.051Z,102469.81
2023-05-02T10:06:54.565Z,102466.16
2023-05-02T10:09:26.286Z,102464.31
2023-05-02T10:11:59.745Z,102454.84
2023-05-02T10:14:31.418Z,102456.56
2023-05-02T10:17:03.686Z,102457.22
2023-05-02T10:20:13.213Z,102464.97
2023-05-02T10:22:45.246Z,102465.41
2023-05-02T10:25:16.505Z,102460.84
2023-05-02T10:27:47.747Z,102466.22
2023-05-02T10:30:19.337Z,102469.34
2023-05-02T10:32:50.781Z,102471.66
2023-05-02T10:35:22.526Z,102475.75
2023-05-02T10:37:53.592Z,102470.25
2023-05-02T10:40:24.676Z,102461.91
2023-05-02T10:42:56.066Z,102455.22
2023-05-02T10:45:33.576Z,102454.94
2023-05-02T10:48:22.396Z,102458.75
2023-05-02T10:50:56.461Z,102458.16
2023-05-02T10:53:29.535Z,102447.69
2023-05-02T10:56:17.548Z,102446.38
2023-05-02T10:58:53.288Z,102449.44
2023-05-02T11:01:28.898Z,102442.47
2023-05-02T11:04:02.396Z,102431.94
2023-05-02T11:07:00.546Z,102439.41
2023-05-02T11:09:33.540Z,102442.66
2023-05-02T11:12:07.447Z,102433.78
2023-05-02T11:14:41.943Z,102441.25
2023-05-02T11:17:13.707Z,102441.06
2023-05-02T11:19:48.548Z,102432.97
2023-05-02T11:22:23.432Z,102424.56
2023-05-02T11:24:55.010Z,102427.88
2023-05-02T11:27:32.594Z,102424.34
2023-05-02T11:30:08.360Z,102424.25
2023-05-02T11:32:54.841Z,102426.84
2023-05-02T11:35:32.575Z,102426.53
2023-05-02T11:38:06.083Z,102427.19
2023-05-02T11:40:37.188Z,102428.03
2023-05-02T11:43:20.125Z,102426.38
2023-05-02T11:45:51.778Z,102419.28
2023-05-02T11:48:24.871Z,102421.19
2023-05-02T11:51:05.450Z,102420.09
2023-05-02T11:53:43.220Z,102416.78
2023-05-02T11:56:14.680Z,102409.94
2023-05-02T11:58:48.383Z,102413.25
2023-05-02T12:01:19.769Z,102395.31
2023-05-02T12:03:53.942Z,102407.34
2023-05-02T12:06:25.143Z,102404.75
2023-05-02T12:09:09.644Z,102387.16
2023-05-02T12:11:40.656Z,102393.38
2023-05-02T12:14:12.731Z,102387.50
2023-05-02T12:16:44.848Z,102393.63
2023-05-02T12:19:18.109Z,102394.41
2023-05-02T12:21:50.107Z,102391.81
2023-05-02T12:24:20.893Z,102394.19
2023-05-02T12:26:54.109Z,102376.53
2023-05-02T12:29:40.598Z,102391.13
2023-05-02T12:32:13.153Z,102386.03
2023-05-02T12:34:44.505Z,102392.59
2023-05-02T12:37:16.249Z,102392.59
2023-05-02T12:39:47.672Z,102392.97
2023-05-02T12:42:22.584Z,102395.69
2023-05-02T12:44:54.967Z,102398.78
2023-05-02T12:47:26.319Z,102383.53
2023-05-02T12:50:00.626Z,102382.56
2023-05-02T12:52:51.851Z,102380.44
2023-05-02T12:55:28.868Z,102377.13
2023-05-02T12:58:18.722Z,102373.34
2023-05-02T13:00:50.154Z,102373.34
2023-05-02T13:03:21.299Z,102372.66
2023-05-02T13:05:56.702Z,102371.00
2023-05-02T13:08:27.965Z,102368.19
2023-05-02T13:10:59.209Z,102371.63
2023-05-02T13:13:30.523Z,102371.38
2023-05-02T13:16:02.063Z,102362.41
2023-05-02T13:18:33.611Z,102363.13
2023-05-02T13:21:06.596Z,102360.41
2023-05-02T13:23:40.836Z,102364.66
2023-05-02T13:26:13.084Z,102351.28
2023-05-02T13:28:44.408Z,102358.16
2023-05-02T13:31:15.884Z,102354.97
2023-05-02T13:33:46.778Z,102357.56
2023-05-02T13:36:18.017Z,102361.09
2023-05-02T13:38:50.785Z,102356.41
2023-05-02T13:41:22.988Z,102357.94
2023-05-02T13:43:55.503Z,102365.97
2023-05-02T13:46:27.450Z,102359.38
2023-05-02T13:48:58.392Z,102354.25
2023-05-02T13:51:30.158Z,102363.75
2023-05-02T13:54:01.859Z,102369.31
2023-05-02T13:56:33.521Z,102369.47
2023-05-02T13:59:06.896Z,102365.56
2023-05-02T14:01:41.867Z,102368.72
2023-05-02T14:04:13.716Z,102366.00
2023-05-02T14:06:45.187Z,102367.19
2023-05-02T14:09:17.251Z,102376.19
2023-05-02T14:11:50.233Z,102376.66
2023-05-02T14:14:22.111Z,102370.97
2023-05-02T14:16:53.952Z,102362.94
2023-05-02T14:19:25.843Z,102371.69
2023-05-02T14:21:57.023Z,102364.00
2023-05-02T14:24:29.037Z,102358.69
2023-05-02T14:27:00.951Z,102367.66
2023-05-02T14:29:36.373Z,102360.22
2023-05-02T14:32:08.124Z,102350.19
2023-05-02T14:34:39.718Z,102354.19
2023-05-02T14:37:11.057Z,102352.19
2023-05-02T14:39:43.937Z,102353.03
2023-05-02T14:42:15.321Z,102343.56
2023-05-02T14:44:46.447Z,102336.22
2023-05-02T14:47:18.306Z,102335.53
2023-05-02T14:49:49.852Z,102341.94
2023-05-02T14:52:21.091Z,102337.66
2023-05-02T14:54:52.587Z,102340.25
2023-05-02T14:57:25.248Z,102343.91
2023-05-02T14:59:57.286Z,102338.84
2023-05-02T15:02:28.834Z,102356.22
2023-05-02T15:05:00.036Z,102335.88
2023-05-02T15:07:33.960Z,102337.16
2023-05-02T15:10:04.898Z,102331.19
2023-05-02T15:12:36.394Z,102323.94
2023-05-02T15:15:08.164Z,102314.41
2023-05-02T15:17:40.570Z,102307.44
2023-05-02T15:20:13.103Z,102311.31
2023-05-02T15:22:44.641Z,102305.53
2023-05-02T15:25:17.479Z,102299.97
2023-05-02T15:27:48.979Z,102290.16
2023-05-02T15:30:23.229Z,102290.53
2023-05-02T15:32:55.150Z,102282.16
2023-05-02T15:35:25.918Z,102285.13
2023-05-02T15:37:57.857Z,102280.28
2023-05-02T15:40:29.851Z,102285.69
2023-05-02T15:43:01.180Z,102286.63
2023-05-02T15:45:33.005Z,102288.28
2023-05-02T15:48:03.670Z,102299.84
2023-05-02T15:50:35.014Z,102287.47
2023-05-02T15:53:06.510Z,102289.69
2023-05-02T15:55:37.858Z,102295.63
2023-05-02T15:58:10.646Z,102294.53
2023-05-02T16:00:41.778Z,102294.19
2023-05-02T16:03:16.906Z,102275.63
2023-05-02T16:05:48.155Z,102280.38
2023-05-02T16:08:19.540Z,102296.34
2023-05-02T16:10:51.003Z,102302.34
2023-05-02T16:13:22.880Z,102304.22
2023-05-02T16:15:54.761Z,102302.34
2023-05-02T16:18:29.650Z,102302.13
2023-05-02T16:21:01.044Z,102291.47
2023-05-02T16:23:32.556Z,102293.03
2023-05-02T16:26:04.750Z,102282.50
2023-05-02T16:28:36.773Z,102290.19
2023-05-02T16:31:12.640Z,102282.84
2023-05-02T16:33:44.397Z,102290.75
2023-05-02T16:36:16.426Z,102284.47
2023-05-02T16:38:48.075Z,102285.09
2023-05-02T16:41:19.362Z,102282.38
2023-05-02T16:43:52.716Z,102281.91
2023-05-02T16:46:23.864Z,102270.81
2023-05-02T16:48:55.313Z,102271.72
2023-05-02T16:51:26.719Z,102270.66
2023-05-02T16:53:57.949Z,102264.06
2023-05-02T16:56:30.125Z,102259.94
2023-05-02T16:59:01.425Z,102258.53
2023-05-02T17:01:32.900Z,102260.63
2023-05-02T17:04:03.508Z,102261.81
2023-05-02T17:06:35.651Z,102260.63
2023-05-02T17:09:07.701Z,102262.41
2023-05-02T17:11:38.856Z,102256.97
2023-05-02T17:14:10.417Z,102272.94
2023-05-02T17:16:44.928Z,102271.63
2023-05-02T17:19:16.392Z,102275.41
2023-05-02T17:21:48.010Z,102275.53
2023-05-02T17:24:19.328Z,102271.63
2023-05-02T17:26:52.833Z,102277.16
2023-05-02T17:29:24.078Z,102273.38
2023-05-02T17:31:55.370Z,102264.88
2023-05-02T17:34:30.058Z,102250.22
2023-05-02T17:37:01.388Z,102261.59
2023-05-02T17:39:32.363Z,102259.34
2023-05-02T17:42:04.084Z,102272.81
2023-05-02T17:44:37.570Z,102269.13
2023-05-02T17:47:09.987Z,102267.84
2023-05-02T17:49:41.453Z,102263.25
2023-05-02T17:52:12.692Z,102263.69
2023-05-02T17:54:44.189Z,102270.22
2023-05-02T17:57:16.166Z,102275.50
2023-05-02T17:59:47.360Z,102262.97
2023-05-02T18:02:19.235Z,102276.34
2023-05-02T18:04:51.296Z,102270.91
2023-05-02T18:07:25.381Z,102280.59
2023-05-02T18:09:56.801Z,102274.88
2023-05-02T18:12:28.037Z,102264.84
2023-05-02T18:14:59.164Z,102262.72
2023-05-02T18:17:30.860Z,102267.56
2023-05-02T18:20:02.508Z,102275.22
2023-05-02T18:22:35.600Z,102275.38
2023-05-02T18:25:07.799Z,102280.44
2023-05-02T18:27:39.711Z,102286.09
2023-05-02T18:30:11.711Z,102279.63
2023-05-02T18:32:43.130Z,102276.41
2023-05-02T18:35:14.540Z,102279.84
2023-05-02T18:37:45.994Z,102277.47
2023-05-02T18:40:17.930Z,102281.13
2023-05-02T18:42:49.101Z,102273.31
2023-05-02T18:45:20.739Z,102276.88
2023-05-02T18:47:52.476Z,102284.19
2023-05-02T18:50:24.381Z,102280.31
2023-05-02T18:52:55.816Z,102287.50
2023-05-02T18:55:27.440Z,102288.81
2023-05-02T18:57:58.621Z,102288.34
2023-05-02T19:00:36.298Z,102287.59
2023-05-02T19:03:08.238Z,102291.16
2023-05-02T19:05:41.780Z,102288.81
2023-05-02T19:08:13.639Z,102297.22
2023-05-02T19:10:44.224Z,102301.09
2023-05-02T19:13:16.140Z,102296.00
2023-05-02T19:15:47.871Z,102298.47
2023-05-02T19:18:19.450Z,102297.31
2023-05-02T19:20:51.154Z,102295.19
2023-05-02T19:23:21.765Z,102303.56
2023-05-02T19:25:53.018Z,102307.09
2023-05-02T19:28:25.403Z,102302.13
2023-05-02T19:30:56.975Z,102298.81
2023-05-02T19:33:28.604Z,102309.19
2023-05-02T19:35:59.973Z,102310.94
2023-05-02T19:38:31.232Z,102308.66
2023-05-02T19:41:03.749Z,102306.50
2023-05-02T19:43:36.672Z,102298.78
2023-05-02T19:46:08.562Z,102306.53
2023-05-02T19:48:39.417Z,102304.41
2023-05-02T19:51:10.881Z,102315.97
2023-05-02T19:53:42.111Z,102318.69
2023-05-02T19:56:14.852Z,102320.53
2023-05-02T19:58:45.864Z,102318.50
2023-05-02T20:01:17.160Z,102313.72
2023-05-02T20:03:48.778Z,102308.78
2023-05-02T20:06:20.161Z,102306.63
2023-05-02T20:08:52.587Z,102307.53
2023-05-02T20:11:23.275Z,102314.38
2023-05-02T20:13:55.915Z,102316.97
2023-05-02T20:16:27.709Z,102322.81
2023-05-02T20:18:58.520Z,102320.19
2023-05-02T20:21:30.061Z,102328.41
2023-05-02T20:24:01.267Z,102332.72
2023-05-02T20:26:35.030Z,102319.97
2023-05-02T20:29:09.105Z,102312.19
2023-05-02T20:31:41.610Z,102318.59
2023-05-02T20:34:12.886Z,102318.50
2023-05-02T20:36:44.349Z,102322.31
2023-05-02T20:39:17.468Z,102323.78
2023-05-02T20:41:51.096Z,102328.94
2023-05-02T20:44:23.953Z,102331.81
2023-05-02T20:46:55.622Z,102337.28
2023-05-02T20:49:27.341Z,102336.28
2023-05-02T20:51:58.815Z,102339.91
2023-05-02T20:54:29.739Z,102340.94
2023-05-02T20:57:01.350Z,102351.53
2023-05-02T20:59:33.493Z,102358.09
2023-05-02T21:02:04.962Z,102347.19
2023-05-02T21:04:36.832Z,102346.19
2023-05-02T21:07:09.188Z,102346.50
2023-05-02T21:09:40.597Z,102345.06
2023-05-02T21:12:12.351Z,102345.28
2023-05-02T21:14:43.717Z,102344.44
2023-05-02T21:17:15.008Z,102346.84
2023-05-02T21:19:46.667Z,102349.16
2023-05-02T21:22:17.791Z,102345.97
2023-05-02T21:24:51.261Z,102336.31
2023-05-02T21:27:22.921Z,102337.41
2023-05-02T21:29:55.020Z,102336.25
2023-05-02T21:32:27.339Z,102342.78
2023-05-02T21:35:00.553Z,102346.81
2023-05-02T21:37:34.972Z,102341.03
2023-05-02T21:40:07.771Z,102355.91
2023-05-02T21:42:38.953Z,102350.13
2023-05-02T21:45:11.131Z,102340.63
2023-05-02T21:47:42.677Z,102334.63
2023-05-02T21:50:13.665Z,102330.41
2023-05-02T21:52:48.241Z,102325.84
2023-05-02T21:55:19.886Z,102326.19
2023-05-02T21:57:51.371Z,102313.06
2023-05-02T22:00:23.213Z,102318.44
2023-05-02T22:02:54.750Z,102312.88
2023-05-02T22:05:26.174Z,102313.03
2023-05-02T22:07:57.610Z,102298.81
2023-05-02T22:10:29.123Z,102305.91
2023-05-02T22:13:00.596Z,102301.56
2023-05-02T22:15:32.550Z,102303.47
2023-05-02T22:18:03.514Z,102306.25
2023-05-02T22:20:35.055Z,102310.03
2023-05-02T22:23:06.853Z,102311.50
2023-05-02T22:25:38.404Z,102312.53
2023-05-02T22:28:12.982Z,102314.78
2023-05-02T22:30:45.064Z,102322.91
2023-05-02T22:33:16.128Z,102323.00
2023-05-02T22:35:47.200Z,102329.34
2023-05-02T22:38:18.508Z,102320.72
2023-05-02T22:40:49.330Z,102329.31
2023-05-02T22:43:20.820Z,102327.38
2023-05-02T22:45:52.582Z,102322.88
2023-05-02T22:48:23.783Z,102313.16
2023-05-02T22:50:54.685Z,102325.75
2023-05-02T22:53:27.599Z,102315.41
2023-05-02T22:55:58.657Z,102317.56
2023-05-02T22:58:30.164Z,102318.44
2023-05-02T23:01:01.214Z,102319.31
2023-05-02T23:03:32.890Z,102302.56
2023-05-02T23:06:04.326Z,102297.09
2023-05-02T23:08:35.184Z,102291.41
2023-05-02T23:11:06.664Z,102285.09
2023-05-02T23:13:37.464Z,102272.50
2023-05-02T23:16:09.023Z,102261.53
2023-05-02T23:18:40.457Z,102268.91
2023-05-02T23:21:18.169Z,102259.34
2023-05-02T23:23:49.172Z,102260.44
2023-05-02T23:26:20.792Z,102260.69
2023-05-02T23:28:52.193Z,102254.09
2023-05-02T23:31:24.588Z,102245.34
2023-05-02T23:33:57.062Z,102240.41
2023-05-02T23:36:28.667Z,102237.41
2023-05-02T23:39:00.248Z,102242.03
2023-05-02T23:41:31.491Z,102245.59
2023-05-02T23:44:02.715Z,102232.72
2023-05-02T23:46:34.084Z,102235.75
2023-05-02T23:49:05.205Z,102227.25
2023-05-02T23:51:36.515Z,102223.66
2023-05-02T23:54:08.883Z,102213.78
2023-05-02T23:56:40.095Z,102208.00
2023-05-02T23:59:12.650Z,102211.31
